createdAt,value
2019-06-01T00:00:40.002Z,21.64
2019-06-01T00:01:46.846Z,21.65
2019-06-01T00:02:55.823Z,21.64
2019-06-01T00:03:57.897Z,21.63
2019-06-01T00:05:02.258Z,21.61
2019-06-01T00:06:08.267Z,21.60
2019-06-01T00:07:13.429Z,21.59
2019-06-01T00:08:18.184Z,21.57
2019-06-01T00:09:22.425Z,21.58
2019-06-01T00:10:27.299Z,21.57
2019-06-01T00:11:31.467Z,21.57
2019-06-01T00:12:39.207Z,21.55
2019-06-01T00:13:43.577Z,21.56
2019-06-01T00:14:48.345Z,21.54
2019-06-01T00:15:52.617Z,21.53
2019-06-01T00:16:57.397Z,21.52
2019-06-01T00:18:01.567Z,21.51
2019-06-01T00:19:06.353Z,21.50
2019-06-01T00:20:10.592Z,21.47
2019-06-01T00:21:15.602Z,21.45
2019-06-01T00:22:19.944Z,21.44
2019-06-01T00:23:24.771Z,21.42
2019-06-01T00:24:29.007Z,21.40
2019-06-01T00:25:33.800Z,21.40
2019-06-01T00:26:38.190Z,21.38
2019-06-01T00:27:44.706Z,21.36
2019-06-01T00:28:50.018Z,21.36
2019-06-01T00:29:55.764Z,21.29
2019-06-01T00:31:00.303Z,21.29
2019-06-01T00:32:05.521Z,21.30
2019-06-01T00:33:09.756Z,21.29
2019-06-01T00:34:14.591Z,21.28
2019-06-01T00:35:18.758Z,21.25
2019-06-01T00:36:23.508Z,21.19
2019-06-01T00:37:27.852Z,21.18
2019-06-01T00:38:32.653Z,21.18
2019-06-01T00:39:37.019Z,21.18
2019-06-01T00:40:41.776Z,21.16
2019-06-01T00:41:46.015Z,21.11
2019-06-01T00:42:50.855Z,21.11
2019-06-01T00:43:54.985Z,21.11
2019-06-01T00:45:00.708Z,21.11
2019-06-01T00:46:05.032Z,21.06
2019-06-01T00:47:09.856Z,21.05
2019-06-01T00:48:14.070Z,21.05
2019-06-01T00:49:18.851Z,21.05
2019-06-01T00:50:22.988Z,21.05
2019-06-01T00:51:27.830Z,21.03
2019-06-01T00:52:31.991Z,21.00
2019-06-01T00:53:36.815Z,20.99
2019-06-01T00:54:41.129Z,21.00
2019-06-01T00:55:46.053Z,21.01
2019-06-01T00:56:51.694Z,20.99
2019-06-01T00:57:56.548Z,21.01
2019-06-01T00:59:00.768Z,21.01
2019-06-01T01:00:08.455Z,21.00
2019-06-01T01:01:12.911Z,21.01
2019-06-01T01:02:17.650Z,21.01
2019-06-01T01:03:21.962Z,21.00
2019-06-01T01:04:26.766Z,21.00
2019-06-01T01:05:30.919Z,20.98
2019-06-01T01:06:35.678Z,20.97
2019-06-01T01:07:39.841Z,20.94
2019-06-01T01:08:44.874Z,20.94
2019-06-01T01:09:49.096Z,20.93
2019-06-01T01:10:55.026Z,20.92
2019-06-01T01:11:59.431Z,20.90
2019-06-01T01:13:05.315Z,20.77
2019-06-01T01:14:09.585Z,20.80
2019-06-01T01:15:14.563Z,20.76
2019-06-01T01:16:18.826Z,20.72
2019-06-01T01:17:23.654Z,20.71
2019-06-01T01:18:28.057Z,20.71
2019-06-01T01:19:32.824Z,20.71
2019-06-01T01:20:38.032Z,20.72
2019-06-01T01:21:42.821Z,20.70
2019-06-01T01:22:48.389Z,20.63
2019-06-01T01:23:54.737Z,20.64
2019-06-01T01:24:58.996Z,20.65
2019-06-01T01:26:03.867Z,20.67
2019-06-01T01:27:07.998Z,20.66
2019-06-01T01:28:12.852Z,20.67
2019-06-01T01:29:17.051Z,20.67
2019-06-01T01:30:21.824Z,20.66
2019-06-01T01:31:25.996Z,20.66
2019-06-01T01:32:32.116Z,20.66
2019-06-01T01:33:36.501Z,20.65
2019-06-01T01:34:41.615Z,20.64
2019-06-01T01:35:45.902Z,20.62
2019-06-01T01:36:52.571Z,20.60
2019-06-01T01:37:58.748Z,20.56
2019-06-01T01:39:03.672Z,20.56
2019-06-01T01:40:08.216Z,20.55
2019-06-01T01:41:13.053Z,20.54
2019-06-01T01:42:17.203Z,20.54
2019-06-01T01:43:22.176Z,20.52
2019-06-01T01:44:26.348Z,20.51
2019-06-01T01:45:31.203Z,20.52
2019-06-01T01:46:35.440Z,20.50
2019-06-01T01:47:40.194Z,20.49
2019-06-01T01:48:44.379Z,20.48
2019-06-01T01:49:50.013Z,20.48
2019-06-01T01:50:54.513Z,20.47
2019-06-01T01:51:59.538Z,20.45
2019-06-01T01:53:04.380Z,20.43
2019-06-01T01:54:09.194Z,20.42
2019-06-01T01:55:13.458Z,20.39
2019-06-01T01:56:18.643Z,20.38
2019-06-01T01:57:22.868Z,20.38
2019-06-01T01:58:27.653Z,20.36
2019-06-01T01:59:31.821Z,20.34
2019-06-01T02:00:42.877Z,20.34
2019-06-01T02:01:47.060Z,20.32
2019-06-01T02:02:51.945Z,20.31
2019-06-01T02:03:57.418Z,20.29
2019-06-01T02:05:02.282Z,20.28
2019-06-01T02:06:07.361Z,20.27
2019-06-01T02:07:12.393Z,20.26
2019-06-01T02:08:16.557Z,20.26
2019-06-01T02:09:21.448Z,20.24
2019-06-01T02:10:25.684Z,20.23
2019-06-01T02:11:30.512Z,20.20
2019-06-01T02:12:34.708Z,20.19
2019-06-01T02:13:39.462Z,20.17
2019-06-01T02:14:43.858Z,20.16
2019-06-01T02:15:48.614Z,20.17
2019-06-01T02:16:53.950Z,20.14
2019-06-01T02:17:58.762Z,20.14
2019-06-01T02:19:02.934Z,20.13
2019-06-01T02:20:08.186Z,20.12
2019-06-01T02:21:12.418Z,20.12
2019-06-01T02:22:17.180Z,20.12
2019-06-01T02:23:21.484Z,20.11
2019-06-01T02:24:26.216Z,20.11
2019-06-01T02:25:31.057Z,20.10
2019-06-01T02:26:35.951Z,20.08
2019-06-01T02:27:40.265Z,20.07
2019-06-01T02:28:45.033Z,20.06
2019-06-01T02:29:49.210Z,20.04
2019-06-01T02:30:55.964Z,20.00
2019-06-01T02:32:01.767Z,19.99
2019-06-01T02:33:06.645Z,19.92
2019-06-01T02:34:10.782Z,19.99
2019-06-01T02:35:15.673Z,19.95
2019-06-01T02:36:20.016Z,19.96
2019-06-01T02:37:24.841Z,19.96
2019-06-01T02:38:29.087Z,19.95
2019-06-01T02:39:34.825Z,19.95
2019-06-01T02:40:38.988Z,19.95
2019-06-01T02:41:44.908Z,19.94
2019-06-01T02:42:49.624Z,19.93
2019-06-01T02:43:54.775Z,19.92
2019-06-01T02:44:59.256Z,19.91
2019-06-01T02:46:06.634Z,19.90
2019-06-01T02:47:10.095Z,19.89
2019-06-01T02:48:15.020Z,19.90
2019-06-01T02:49:19.255Z,19.88
2019-06-01T02:50:24.160Z,19.89
2019-06-01T02:51:28.447Z,19.88
2019-06-01T02:52:33.437Z,19.87
2019-06-01T02:53:37.679Z,19.87
2019-06-01T02:54:42.524Z,19.86
2019-06-01T02:55:46.684Z,19.85
2019-06-01T02:56:51.513Z,19.85
2019-06-01T02:57:56.017Z,19.83
2019-06-01T02:59:00.801Z,19.82
2019-06-01T03:00:09.412Z,19.80
2019-06-01T03:01:23.347Z,19.78
2019-06-01T03:02:27.521Z,19.77
2019-06-01T03:03:32.463Z,19.74
2019-06-01T03:04:36.715Z,19.73
2019-06-01T03:05:41.423Z,19.70
2019-06-01T03:06:45.670Z,19.69
2019-06-01T03:07:50.419Z,19.68
2019-06-01T03:08:54.707Z,19.66
2019-06-01T03:10:00.952Z,19.64
2019-06-01T03:11:06.084Z,19.64
2019-06-01T03:12:13.639Z,19.62
2019-06-01T03:13:17.813Z,19.57
2019-06-01T03:14:24.388Z,19.55
2019-06-01T03:15:28.711Z,19.52
2019-06-01T03:16:33.578Z,19.48
2019-06-01T03:17:37.918Z,19.47
2019-06-01T03:18:42.687Z,19.43
2019-06-01T03:19:46.963Z,19.42
2019-06-01T03:20:51.745Z,19.44
2019-06-01T03:21:57.452Z,19.44
2019-06-01T03:23:02.211Z,19.42
2019-06-01T03:24:08.419Z,19.44
2019-06-01T03:25:13.733Z,19.44
2019-06-01T03:26:17.892Z,19.44
2019-06-01T03:27:23.556Z,19.45
2019-06-01T03:28:27.753Z,19.44
2019-06-01T03:29:32.510Z,19.44
2019-06-01T03:30:45.436Z,19.44
2019-06-01T03:31:49.048Z,19.44
2019-06-01T03:32:53.213Z,19.43
2019-06-01T03:33:59.146Z,19.43
2019-06-01T03:35:04.650Z,19.43
2019-06-01T03:36:09.452Z,19.39
2019-06-01T03:37:13.735Z,19.39
2019-06-01T03:38:18.494Z,19.40
2019-06-01T03:39:22.852Z,19.38
2019-06-01T03:40:27.709Z,19.38
2019-06-01T03:41:32.197Z,19.39
2019-06-01T03:42:37.208Z,19.38
2019-06-01T03:43:41.381Z,19.39
2019-06-01T03:44:46.404Z,19.38
2019-06-01T03:45:50.745Z,19.38
2019-06-01T03:46:55.703Z,19.36
2019-06-01T03:48:00.525Z,19.36
2019-06-01T03:49:05.733Z,19.34
2019-06-01T03:50:10.997Z,19.33
2019-06-01T03:51:15.808Z,19.31
2019-06-01T03:52:20.184Z,19.29
2019-06-01T03:53:24.940Z,19.26
2019-06-01T03:54:29.185Z,19.25
2019-06-01T03:55:34.085Z,19.25
2019-06-01T03:56:38.380Z,19.24
2019-06-01T03:57:43.247Z,19.20
2019-06-01T03:58:47.591Z,19.21
2019-06-01T03:59:52.468Z,19.18
2019-06-01T04:00:56.686Z,19.16
2019-06-01T04:02:01.553Z,19.16
2019-06-01T04:03:05.767Z,19.17
2019-06-01T04:04:11.283Z,19.17
2019-06-01T04:05:15.804Z,19.18
2019-06-01T04:06:20.695Z,19.16
2019-06-01T04:07:24.868Z,19.17
2019-06-01T04:08:29.492Z,19.17
2019-06-01T04:09:34.023Z,19.16
2019-06-01T04:10:38.777Z,19.16
2019-06-01T04:11:43.343Z,19.15
2019-06-01T04:12:48.116Z,19.18
2019-06-01T04:13:52.646Z,19.17
2019-06-01T04:14:57.602Z,19.15
2019-06-01T04:16:01.874Z,19.16
2019-06-01T04:17:08.021Z,19.15
2019-06-01T04:18:13.889Z,19.16
2019-06-01T04:19:19.025Z,19.17
2019-06-01T04:20:23.140Z,19.15
2019-06-01T04:21:28.050Z,19.16
2019-06-01T04:22:32.226Z,19.14
2019-06-01T04:23:37.186Z,19.15
2019-06-01T04:24:42.524Z,19.16
2019-06-01T04:25:47.261Z,19.15
2019-06-01T04:26:51.566Z,19.15
2019-06-01T04:27:56.348Z,19.15
2019-06-01T04:29:02.194Z,19.16
2019-06-01T04:30:09.431Z,19.16
2019-06-01T04:31:13.839Z,19.18
2019-06-01T04:32:18.596Z,19.17
2019-06-01T04:33:22.844Z,19.17
2019-06-01T04:34:27.602Z,19.03
2019-06-01T04:35:31.984Z,19.17
2019-06-01T04:36:37.771Z,19.16
2019-06-01T04:37:41.944Z,19.15
2019-06-01T04:38:46.701Z,19.16
2019-06-01T04:39:51.080Z,19.17
2019-06-01T04:40:56.001Z,19.19
2019-06-01T04:42:00.945Z,19.15
2019-06-01T04:43:05.810Z,19.15
2019-06-01T04:44:10.154Z,19.17
2019-06-01T04:45:14.898Z,19.17
2019-06-01T04:46:19.565Z,19.19
2019-06-01T04:47:24.380Z,19.20
2019-06-01T04:48:28.665Z,19.24
2019-06-01T04:49:33.420Z,19.28
2019-06-01T04:50:37.594Z,19.31
2019-06-01T04:51:42.652Z,19.34
2019-06-01T04:52:46.892Z,19.36
2019-06-01T04:53:51.773Z,19.36
2019-06-01T04:54:55.940Z,19.37
2019-06-01T04:56:00.806Z,19.39
2019-06-01T04:57:05.232Z,19.42
2019-06-01T04:58:11.078Z,19.44
2019-06-01T04:59:16.723Z,19.41
2019-06-01T05:00:27.244Z,19.38
2019-06-01T05:01:27.687Z,19.39
2019-06-01T05:02:32.598Z,19.33
2019-06-01T05:03:36.848Z,19.39
2019-06-01T05:04:43.541Z,19.43
2019-06-01T05:05:47.581Z,19.44
2019-06-01T05:06:52.649Z,19.43
2019-06-01T05:07:56.858Z,19.49
2019-06-01T05:09:01.617Z,19.53
2019-06-01T05:10:07.768Z,19.54
2019-06-01T05:11:13.575Z,19.59
2019-06-01T05:12:17.876Z,19.64
2019-06-01T05:13:23.712Z,19.68
2019-06-01T05:14:28.252Z,19.70
2019-06-01T05:15:33.115Z,19.75
2019-06-01T05:16:37.492Z,19.79
2019-06-01T05:17:42.311Z,19.83
2019-06-01T05:18:46.553Z,19.86
2019-06-01T05:19:51.673Z,19.91
2019-06-01T05:20:55.891Z,19.95
2019-06-01T05:22:00.871Z,19.99
2019-06-01T05:23:06.496Z,20.03
2019-06-01T05:24:12.736Z,20.07
2019-06-01T05:25:17.261Z,20.10
2019-06-01T05:26:22.024Z,20.10
2019-06-01T05:27:26.197Z,20.11
2019-06-01T05:28:30.948Z,20.12
2019-06-01T05:29:35.469Z,20.17
2019-06-01T05:30:40.284Z,20.16
2019-06-01T05:31:44.784Z,20.16
2019-06-01T05:32:49.724Z,20.19
2019-06-01T05:33:53.868Z,20.23
2019-06-01T05:34:58.746Z,20.27
2019-06-01T05:36:02.920Z,20.32
2019-06-01T05:37:08.497Z,20.34
2019-06-01T05:38:12.694Z,20.35
2019-06-01T05:39:18.698Z,20.41
2019-06-01T05:40:23.144Z,20.45
2019-06-01T05:41:27.900Z,20.51
2019-06-01T05:42:32.096Z,20.55
2019-06-01T05:43:38.470Z,20.59
2019-06-01T05:44:42.700Z,20.60
2019-06-01T05:45:47.460Z,20.63
2019-06-01T05:46:52.856Z,20.67
2019-06-01T05:47:57.619Z,20.69
2019-06-01T05:49:01.925Z,20.73
2019-06-01T05:50:10.595Z,20.77
2019-06-01T05:51:16.827Z,20.78
2019-06-01T05:52:22.960Z,20.81
2019-06-01T05:53:27.210Z,20.85
2019-06-01T05:54:33.486Z,20.89
2019-06-01T05:55:37.852Z,20.92
2019-06-01T05:56:42.726Z,20.94
2019-06-01T05:57:46.902Z,21.01
2019-06-01T05:58:51.786Z,21.01
2019-06-01T05:59:56.149Z,21.04
2019-06-01T06:01:00.930Z,21.06
2019-06-01T06:02:05.232Z,21.09
2019-06-01T06:03:14.351Z,21.14
2019-06-01T06:04:17.531Z,21.15
2019-06-01T06:05:23.891Z,21.17
2019-06-01T06:06:28.264Z,21.20
2019-06-01T06:07:33.032Z,21.24
2019-06-01T06:08:37.444Z,21.25
2019-06-01T06:09:42.360Z,21.30
2019-06-01T06:10:47.424Z,21.32
2019-06-01T06:11:54.037Z,21.35
2019-06-01T06:12:58.376Z,21.37
2019-06-01T06:14:03.132Z,21.40
2019-06-01T06:15:11.451Z,21.42
2019-06-01T06:16:17.959Z,21.48
2019-06-01T06:17:24.291Z,21.47
2019-06-01T06:18:29.270Z,21.50
2019-06-01T06:19:33.455Z,21.53
2019-06-01T06:20:38.257Z,21.56
2019-06-01T06:21:42.477Z,21.58
2019-06-01T06:22:47.404Z,21.63
2019-06-01T06:23:51.708Z,21.66
2019-06-01T06:24:56.637Z,21.71
2019-06-01T06:26:02.274Z,21.77
2019-06-01T06:27:07.030Z,21.82
2019-06-01T06:28:12.468Z,21.86
2019-06-01T06:29:17.351Z,21.89
2019-06-01T06:30:23.029Z,21.91
2019-06-01T06:31:27.800Z,21.94
2019-06-01T06:32:31.976Z,21.98
2019-06-01T06:33:37.083Z,22.02
2019-06-01T06:34:41.391Z,22.06
2019-06-01T06:35:46.248Z,22.10
2019-06-01T06:36:50.471Z,22.14
2019-06-01T06:37:56.075Z,22.17
2019-06-01T06:39:00.379Z,22.19
2019-06-01T06:40:07.265Z,22.24
2019-06-01T06:41:11.622Z,22.28
2019-06-01T06:42:16.450Z,22.31
2019-06-01T06:43:29.701Z,22.35
2019-06-01T06:44:27.284Z,22.39
2019-06-01T06:45:33.108Z,22.41
2019-06-01T06:46:37.969Z,22.45
2019-06-01T06:47:42.145Z,22.48
2019-06-01T06:48:46.981Z,22.51
2019-06-01T06:49:51.263Z,22.53
2019-06-01T06:50:56.004Z,22.55
2019-06-01T06:52:00.620Z,22.57
2019-06-01T06:53:05.481Z,22.61
2019-06-01T06:54:09.665Z,22.58
2019-06-01T06:55:15.646Z,22.59
2019-06-01T06:56:20.000Z,22.64
2019-06-01T06:57:26.163Z,22.67
2019-06-01T06:58:30.502Z,22.72
2019-06-01T06:59:35.324Z,22.75
2019-06-01T07:00:39.600Z,22.74
2019-06-01T07:01:44.427Z,22.78
2019-06-01T07:02:48.660Z,22.76
2019-06-01T07:03:53.468Z,22.79
2019-06-01T07:04:57.664Z,22.80
2019-06-01T07:06:02.423Z,22.84
2019-06-01T07:07:06.810Z,22.86
2019-06-01T07:08:11.614Z,22.89
2019-06-01T07:09:15.779Z,22.93
2019-06-01T07:10:20.566Z,22.96
2019-06-01T07:11:25.336Z,23.00
2019-06-01T07:12:33.363Z,23.03
2019-06-01T07:13:37.596Z,23.06
2019-06-01T07:14:42.352Z,23.12
2019-06-01T07:15:46.543Z,23.14
2019-06-01T07:16:51.526Z,23.16
2019-06-01T07:17:55.699Z,23.21
2019-06-01T07:19:00.452Z,23.26
2019-06-01T07:20:06.536Z,23.29
2019-06-01T07:21:11.292Z,23.35
2019-06-01T07:22:17.044Z,23.37
2019-06-01T07:23:22.027Z,23.44
2019-06-01T07:24:26.217Z,23.49
2019-06-01T07:25:30.972Z,23.53
2019-06-01T07:26:35.173Z,23.57
2019-06-01T07:27:40.219Z,23.59
2019-06-01T07:28:45.585Z,23.63
2019-06-01T07:29:50.570Z,23.66
2019-06-01T07:30:54.716Z,23.71
2019-06-01T07:31:59.472Z,23.75
2019-06-01T07:33:04.787Z,23.80
2019-06-01T07:34:09.583Z,23.83
2019-06-01T07:35:14.520Z,23.86
2019-06-01T07:36:20.267Z,23.90
2019-06-01T07:37:24.599Z,23.90
2019-06-01T07:38:29.593Z,23.93
2019-06-01T07:39:33.877Z,23.95
2019-06-01T07:40:38.934Z,23.99
2019-06-01T07:41:43.471Z,24.01
2019-06-01T07:42:48.264Z,24.04
2019-06-01T07:43:52.680Z,24.07
2019-06-01T07:44:57.477Z,24.12
2019-06-01T07:46:01.648Z,24.16
2019-06-01T07:47:06.555Z,24.18
2019-06-01T07:48:10.720Z,24.21
2019-06-01T07:49:16.592Z,24.25
2019-06-01T07:50:21.893Z,24.30
2019-06-01T07:51:27.419Z,24.33
2019-06-01T07:52:32.418Z,24.37
2019-06-01T07:53:37.547Z,24.43
2019-06-01T07:54:41.726Z,24.47
2019-06-01T07:55:46.610Z,24.50
2019-06-01T07:56:51.731Z,24.53
2019-06-01T07:57:56.480Z,24.58
2019-06-01T07:59:00.744Z,24.59
2019-06-01T08:00:07.930Z,24.63
2019-06-01T08:01:13.791Z,24.67
2019-06-01T08:02:18.682Z,24.74
2019-06-01T08:03:26.020Z,24.76
2019-06-01T08:04:31.767Z,24.81
2019-06-01T08:05:35.221Z,24.86
2019-06-01T08:06:46.557Z,24.89
2019-06-01T08:07:54.515Z,24.92
2019-06-01T08:09:02.932Z,24.95
2019-06-01T08:10:10.168Z,24.98
2019-06-01T08:11:17.684Z,25.01
2019-06-01T08:12:25.209Z,25.04
2019-06-01T08:13:35.463Z,25.08
2019-06-01T08:14:39.870Z,25.14
2019-06-01T08:15:45.826Z,25.18
2019-06-01T08:16:52.090Z,25.22
2019-06-01T08:17:57.276Z,25.24
2019-06-01T08:19:01.944Z,25.28
2019-06-01T08:20:07.770Z,25.30
2019-06-01T08:21:12.152Z,25.34
2019-06-01T08:22:16.972Z,25.36
2019-06-01T08:23:21.876Z,25.38
2019-06-01T08:24:26.796Z,25.42
2019-06-01T08:25:32.795Z,25.43
2019-06-01T08:26:39.692Z,25.47
2019-06-01T08:27:44.020Z,25.50
2019-06-01T08:28:48.956Z,25.53
2019-06-01T08:29:53.145Z,25.58
2019-06-01T08:30:57.998Z,25.63
2019-06-01T08:32:02.152Z,25.59
2019-06-01T08:33:07.096Z,25.59
2019-06-01T08:34:11.505Z,25.66
2019-06-01T08:35:16.552Z,25.71
2019-06-01T08:36:20.930Z,25.77
2019-06-01T08:37:25.618Z,25.85
2019-06-01T08:38:29.880Z,25.89
2019-06-01T08:39:34.661Z,25.96
2019-06-01T08:40:38.831Z,26.03
2019-06-01T08:41:43.675Z,26.06
2019-06-01T08:42:47.895Z,25.99
2019-06-01T08:43:52.715Z,26.03
2019-06-01T08:44:56.927Z,26.05
2019-06-01T08:46:01.709Z,26.09
2019-06-01T08:47:05.967Z,26.14
2019-06-01T08:48:10.700Z,26.15
2019-06-01T08:49:14.946Z,26.20
2019-06-01T08:50:20.274Z,26.26
2019-06-01T08:51:26.362Z,26.32
2019-06-01T08:52:32.192Z,26.38
2019-06-01T08:53:36.634Z,26.45
2019-06-01T08:54:41.391Z,26.51
2019-06-01T08:55:45.628Z,26.51
2019-06-01T08:56:50.222Z,26.58
2019-06-01T08:57:54.469Z,26.63
2019-06-01T08:58:59.210Z,26.67
2019-06-01T09:00:05.844Z,26.73
2019-06-01T09:01:10.702Z,26.78
2019-06-01T09:02:15.837Z,26.83
2019-06-01T09:03:20.596Z,26.94
2019-06-01T09:04:24.828Z,26.94
2019-06-01T09:05:31.223Z,26.98
2019-06-01T09:06:35.766Z,27.05
2019-06-01T09:07:40.600Z,27.10
2019-06-01T09:08:44.766Z,27.15
2019-06-01T09:09:49.577Z,27.18
2019-06-01T09:10:53.748Z,27.21
2019-06-01T09:11:58.683Z,27.24
2019-06-01T09:13:02.858Z,27.27
2019-06-01T09:14:07.673Z,27.33
2019-06-01T09:15:12.135Z,27.37
2019-06-01T09:16:17.108Z,27.40
2019-06-01T09:17:21.614Z,27.43
2019-06-01T09:18:27.537Z,27.47
2019-06-01T09:19:33.565Z,27.51
2019-06-01T09:20:39.403Z,27.57
2019-06-01T09:21:43.966Z,27.60
2019-06-01T09:22:48.775Z,27.60
2019-06-01T09:23:53.079Z,27.63
2019-06-01T09:24:57.911Z,27.61
2019-06-01T09:26:02.080Z,27.63
2019-06-01T09:27:06.910Z,27.64
2019-06-01T09:28:11.120Z,27.67
2019-06-01T09:29:15.880Z,27.67
2019-06-01T09:30:20.576Z,27.72
2019-06-01T09:31:26.284Z,27.76
2019-06-01T09:32:34.309Z,27.80
2019-06-01T09:33:38.264Z,27.85
2019-06-01T09:34:42.525Z,27.89
2019-06-01T09:35:55.528Z,27.93
2019-06-01T09:36:55.536Z,27.95
2019-06-01T09:38:00.645Z,27.97
2019-06-01T09:39:07.403Z,28.02
2019-06-01T09:40:12.515Z,28.06
2019-06-01T09:41:16.748Z,28.10
2019-06-01T09:42:21.688Z,28.15
2019-06-01T09:43:26.535Z,28.18
2019-06-01T09:44:31.980Z,28.21
2019-06-01T09:45:36.777Z,28.24
2019-06-01T09:46:41.537Z,28.28
2019-06-01T09:47:46.115Z,28.31
2019-06-01T09:48:51.199Z,28.35
2019-06-01T09:49:55.512Z,28.39
2019-06-01T09:51:00.277Z,28.44
2019-06-01T09:52:04.764Z,28.48
2019-06-01T09:53:09.515Z,28.54
2019-06-01T09:54:13.750Z,28.57
2019-06-01T09:55:18.552Z,28.63
2019-06-01T09:56:22.724Z,28.69
2019-06-01T09:57:27.722Z,28.78
2019-06-01T09:58:32.297Z,28.78
2019-06-01T09:59:38.165Z,28.81
2019-06-01T10:00:43.958Z,28.82
2019-06-01T10:01:48.977Z,28.84
2019-06-01T10:02:53.240Z,28.84
2019-06-01T10:03:58.057Z,28.86
2019-06-01T10:05:02.345Z,28.88
2019-06-01T10:06:08.192Z,28.91
2019-06-01T10:07:12.546Z,28.94
2019-06-01T10:08:17.347Z,28.98
2019-06-01T10:09:21.764Z,29.02
2019-06-01T10:10:26.521Z,29.06
2019-06-01T10:11:32.496Z,29.09
2019-06-01T10:12:38.182Z,29.12
2019-06-01T10:13:42.739Z,29.15
2019-06-01T10:14:48.504Z,29.19
2019-06-01T10:15:52.676Z,29.24
2019-06-01T10:16:57.485Z,29.29
2019-06-01T10:18:01.652Z,29.35
2019-06-01T10:19:06.625Z,29.39
2019-06-01T10:20:11.813Z,29.44
2019-06-01T10:21:16.571Z,29.48
2019-06-01T10:22:20.757Z,29.53
2019-06-01T10:23:25.511Z,29.58
2019-06-01T10:24:31.088Z,29.66
2019-06-01T10:25:36.470Z,29.68
2019-06-01T10:26:41.860Z,29.72
2019-06-01T10:27:46.657Z,29.76
2019-06-01T10:28:50.902Z,29.79
2019-06-01T10:29:55.685Z,29.79
2019-06-01T10:30:59.935Z,29.80
2019-06-01T10:32:05.160Z,29.71
2019-06-01T10:33:09.315Z,29.70
2019-06-01T10:34:14.077Z,29.70
2019-06-01T10:35:18.563Z,29.71
2019-06-01T10:36:23.380Z,29.74
2019-06-01T10:37:27.726Z,29.74
2019-06-01T10:38:33.398Z,29.78
2019-06-01T10:39:37.674Z,29.82
2019-06-01T10:40:42.465Z,29.85
2019-06-01T10:41:46.712Z,29.83
2019-06-01T10:42:51.526Z,29.83
2019-06-01T10:43:55.687Z,29.83
2019-06-01T10:45:00.452Z,29.86
2019-06-01T10:46:04.984Z,29.91
2019-06-01T10:47:09.735Z,29.96
2019-06-01T10:48:13.903Z,29.99
2019-06-01T10:49:19.666Z,30.04
2019-06-01T10:50:23.929Z,30.07
2019-06-01T10:51:28.684Z,30.12
2019-06-01T10:52:36.243Z,30.15
2019-06-01T10:53:42.443Z,30.20
2019-06-01T10:54:46.920Z,30.21
2019-06-01T10:55:51.677Z,30.27
2019-06-01T10:56:55.873Z,30.30
2019-06-01T10:58:00.636Z,30.36
2019-06-01T10:59:05.177Z,30.41
2019-06-01T11:00:13.207Z,30.37
2019-06-01T11:01:17.376Z,30.34
2019-06-01T11:02:22.250Z,30.27
2019-06-01T11:03:26.420Z,30.27
2019-06-01T11:04:32.689Z,30.29
2019-06-01T11:05:36.920Z,30.32
2019-06-01T11:06:46.476Z,30.32
2019-06-01T11:07:47.751Z,30.36
2019-06-01T11:08:52.506Z,30.32
2019-06-01T11:09:56.695Z,30.29
2019-06-01T11:11:01.447Z,30.32
2019-06-01T11:12:05.620Z,30.34
2019-06-01T11:13:10.407Z,30.36
2019-06-01T11:14:14.572Z,30.30
2019-06-01T11:15:19.408Z,30.23
2019-06-01T11:16:23.586Z,30.24
2019-06-01T11:17:28.363Z,30.28
2019-06-01T11:18:33.200Z,30.27
2019-06-01T11:19:39.372Z,30.24
2019-06-01T11:20:43.694Z,30.26
2019-06-01T11:21:48.476Z,30.30
2019-06-01T11:22:52.649Z,30.30
2019-06-01T11:23:57.404Z,30.24
2019-06-01T11:25:01.627Z,30.23
2019-06-01T11:26:06.424Z,30.21
2019-06-01T11:27:10.596Z,30.16
2019-06-01T11:28:15.387Z,30.13
2019-06-01T11:29:19.927Z,30.16
2019-06-01T11:30:24.736Z,30.11
2019-06-01T11:31:28.905Z,29.90
2019-06-01T11:32:39.475Z,29.86
2019-06-01T11:33:42.781Z,29.90
2019-06-01T11:34:47.658Z,29.95
2019-06-01T11:35:51.949Z,29.99
2019-06-01T11:37:04.965Z,29.99
2019-06-01T11:38:02.812Z,29.98
2019-06-01T11:39:08.060Z,30.02
2019-06-01T11:40:12.299Z,30.07
2019-06-01T11:41:18.706Z,30.12
2019-06-01T11:42:23.074Z,30.17
2019-06-01T11:43:27.901Z,30.24
2019-06-01T11:44:32.180Z,30.31
2019-06-01T11:45:36.937Z,30.35
2019-06-01T11:46:41.404Z,30.28
2019-06-01T11:47:46.160Z,30.27
2019-06-01T11:48:50.520Z,30.27
2019-06-01T11:49:55.385Z,30.24
2019-06-01T11:50:59.597Z,30.28
2019-06-01T11:52:05.472Z,30.35
2019-06-01T11:53:09.724Z,30.39
2019-06-01T11:54:14.514Z,30.43
2019-06-01T11:55:18.770Z,30.45
2019-06-01T11:56:23.710Z,30.46
2019-06-01T11:57:28.089Z,30.45
2019-06-01T11:58:32.912Z,30.47
2019-06-01T11:59:37.475Z,30.46
2019-06-01T12:00:43.743Z,30.49
2019-06-01T12:01:47.923Z,30.52
2019-06-01T12:02:52.703Z,30.52
2019-06-01T12:03:56.899Z,30.57
2019-06-01T12:05:01.730Z,30.59
2019-06-01T12:06:06.393Z,30.62
2019-06-01T12:07:17.719Z,30.65
2019-06-01T12:08:17.120Z,30.68
2019-06-01T12:09:21.928Z,30.69
2019-06-01T12:10:26.355Z,30.66
2019-06-01T12:11:31.206Z,30.67
2019-06-01T12:12:36.012Z,30.66
2019-06-01T12:13:41.907Z,30.66
2019-06-01T12:14:46.858Z,30.61
2019-06-01T12:15:52.149Z,30.58
2019-06-01T12:16:56.484Z,30.62
2019-06-01T12:18:01.254Z,30.62
2019-06-01T12:19:05.540Z,30.61
2019-06-01T12:20:10.689Z,30.62
2019-06-01T12:21:15.832Z,30.65
2019-06-01T12:22:20.618Z,30.72
2019-06-01T12:23:24.847Z,30.76
2019-06-01T12:24:29.814Z,30.81
2019-06-01T12:25:34.007Z,30.82
2019-06-01T12:26:39.270Z,30.86
2019-06-01T12:27:43.639Z,30.86
2019-06-01T12:28:48.560Z,30.93
2019-06-01T12:29:52.947Z,30.88
2019-06-01T12:30:58.786Z,30.89
2019-06-01T12:32:03.073Z,30.92
2019-06-01T12:33:08.428Z,30.91
2019-06-01T12:34:12.684Z,30.92
2019-06-01T12:35:17.650Z,30.93
2019-06-01T12:36:21.804Z,30.91
2019-06-01T12:37:45.569Z,30.96
2019-06-01T12:38:34.225Z,30.93
2019-06-01T12:39:40.330Z,31.03
2019-06-01T12:40:45.326Z,31.02
2019-06-01T12:41:51.732Z,31.02
2019-06-01T12:42:56.067Z,31.02
2019-06-01T12:44:13.252Z,31.07
2019-06-01T12:45:22.232Z,31.12
2019-06-01T12:46:24.444Z,31.11
2019-06-01T12:47:28.623Z,31.06
2019-06-01T12:48:33.380Z,31.09
2019-06-01T12:49:37.552Z,31.08
2019-06-01T12:50:46.142Z,31.08
2019-06-01T12:51:49.028Z,31.08
2019-06-01T12:52:53.944Z,31.10
2019-06-01T12:53:58.140Z,31.04
2019-06-01T12:55:02.937Z,31.07
2019-06-01T12:56:07.129Z,31.11
2019-06-01T12:57:12.026Z,31.09
2019-06-01T12:58:16.198Z,31.10
2019-06-01T12:59:21.027Z,31.12
2019-06-01T13:00:25.337Z,31.14
2019-06-01T13:01:30.124Z,31.16
2019-06-01T13:02:34.419Z,31.19
2019-06-01T13:03:39.286Z,31.21
2019-06-01T13:04:44.827Z,31.25
2019-06-01T13:05:49.984Z,31.26
2019-06-01T13:06:54.309Z,31.25
2019-06-01T13:08:02.831Z,31.28
2019-06-01T13:09:07.509Z,31.27
2019-06-01T13:10:12.419Z,31.30
2019-06-01T13:11:16.924Z,31.33
2019-06-01T13:12:21.699Z,31.35
2019-06-01T13:13:25.946Z,31.38
2019-06-01T13:14:31.246Z,31.41
2019-06-01T13:15:35.489Z,31.43
2019-06-01T13:16:46.345Z,31.43
2019-06-01T13:17:47.226Z,31.41
2019-06-01T13:18:52.162Z,31.39
2019-06-01T13:19:56.384Z,31.41
2019-06-01T13:21:01.316Z,31.38
2019-06-01T13:22:05.755Z,31.40
2019-06-01T13:23:10.525Z,31.41
2019-06-01T13:24:15.616Z,31.45
2019-06-01T13:25:20.446Z,31.47
2019-06-01T13:26:25.159Z,31.47
2019-06-01T13:27:30.209Z,31.50
2019-06-01T13:28:37.960Z,31.50
2019-06-01T13:29:41.687Z,31.50
2019-06-01T13:30:47.366Z,31.55
2019-06-01T13:31:52.662Z,31.58
2019-06-01T13:32:57.033Z,31.60
2019-06-01T13:34:01.923Z,31.61
2019-06-01T13:35:07.265Z,31.66
2019-06-01T13:36:12.073Z,31.65
2019-06-01T13:37:16.270Z,31.69
2019-06-01T13:38:22.020Z,31.67
2019-06-01T13:39:30.314Z,31.67
2019-06-01T13:40:35.153Z,31.64
2019-06-01T13:41:39.329Z,31.63
2019-06-01T13:42:45.413Z,31.64
2019-06-01T13:43:49.598Z,31.57
2019-06-01T13:44:54.386Z,31.57
2019-06-01T13:45:58.711Z,31.60
2019-06-01T13:47:03.614Z,31.62
2019-06-01T13:48:07.881Z,31.62
2019-06-01T13:49:12.636Z,31.62
2019-06-01T13:50:17.501Z,31.63
2019-06-01T13:51:22.315Z,31.63
2019-06-01T13:52:26.552Z,31.62
2019-06-01T13:53:31.567Z,31.64
2019-06-01T13:54:40.026Z,31.65
2019-06-01T13:55:44.056Z,31.66
2019-06-01T13:56:48.814Z,31.68